sensor_id;sensor_type;location;lat;lon;timestamp;pressure;altitude;pressure_sealevel;temperature
70668;BMP280;58242;51.250;-1.118;2024-01-16T00:00:22;99980.00;;;4.93
70668;BMP280;58242;51.250;-1.118;2024-01-16T00:02:47;99988.22;;;4.91
70668;BMP280;58242;51.250;-1.118;2024-01-16T00:05:13;99990.88;;;4.91
70668;BMP280;58242;51.250;-1.118;2024-01-16T00:07:39;99983.97;;;4.90
70668;BMP280;58242;51.250;-1.118;2024-01-16T00:10:07;99987.72;;;4.89
70668;BMP280;58242;51.250;-1.118;2024-01-16T00:12:33;99987.72;;;4.89
70668;BMP280;58242;51.250;-1.118;2024-01-16T00:14:58;99984.56;;;4.87
70668;BMP280;58242;51.250;-1.118;2024-01-16T00:17:24;99989.06;;;4.87
70668;BMP280;58242;51.250;-1.118;2024-01-16T00:19:49;99985.63;;;4.86
70668;BMP280;58242;51.250;-1.118;2024-01-16T00:22:15;99983.78;;;4.87
70668;BMP280;58242;51.250;-1.118;2024-01-16T00:24:40;99981.44;;;4.85
70668;BMP280;58242;51.250;-1.118;2024-01-16T00:27:05;99974.56;;;4.84
70668;BMP280;58242;51.250;-1.118;2024-01-16T00:29:31;99969.84;;;4.81
70668;BMP280;58242;51.250;-1.118;2024-01-16T00:31:56;99965.63;;;4.80
70668;BMP280;58242;51.250;-1.118;2024-01-16T00:34:21;99968.53;;;4.79
70668;BMP280;58242;51.250;-1.118;2024-01-16T00:36:47;99966.19;;;4.78
70668;BMP280;58242;51.250;-1.118;2024-01-16T00:39:12;99963.81;;;4.76
70668;BMP280;58242;51.250;-1.118;2024-01-16T00:41:38;99958.06;;;4.74
70668;BMP280;58242;51.250;-1.118;2024-01-16T00:44:04;99956.47;;;4.73
70668;BMP280;58242;51.250;-1.118;2024-01-16T00:46:30;99954.88;;;4.72
70668;BMP280;58242;51.250;-1.118;2024-01-16T00:48:55;99960.50;;;4.71
70668;BMP280;58242;51.250;-1.118;2024-01-16T00:51:21;99956.25;;;4.70
70668;BMP280;58242;51.250;-1.118;2024-01-16T00:53:46;99945.94;;;4.68
70668;BMP280;58242;51.250;-1.118;2024-01-16T00:56:12;99949.38;;;4.69
70668;BMP280;58242;51.250;-1.118;2024-01-16T00:58:38;99943.31;;;4.68
70668;BMP280;58242;51.250;-1.118;2024-01-16T01:01:03;99940.66;;;4.68
70668;BMP280;58242;51.250;-1.118;2024-01-16T01:03:29;99945.16;;;4.68
70668;BMP280;58242;51.250;-1.118;2024-01-16T01:05:55;99942.03;;;4.66
70668;BMP280;58242;51.250;-1.118;2024-01-16T01:08:20;99940.44;;;4.65
70668;BMP280;58242;51.250;-1.118;2024-01-16T01:10:45;99941.50;;;4.64
70668;BMP280;58242;51.250;-1.118;2024-01-16T01:13:11;99932.03;;;4.63
70668;BMP280;58242;51.250;-1.118;2024-01-16T01:15:36;99935.72;;;4.62
70668;BMP280;58242;51.250;-1.118;2024-01-16T01:18:02;99933.38;;;4.60
70668;BMP280;58242;51.250;-1.118;2024-01-16T01:20:27;99932.56;;;4.60
70668;BMP280;58242;51.250;-1.118;2024-01-16T01:22:52;99935.53;;;4.59
70668;BMP280;58242;51.250;-1.118;2024-01-16T01:25:18;99940.03;;;4.58
70668;BMP280;58242;51.250;-1.118;2024-01-16T01:27:44;99930.50;;;4.57
70668;BMP280;58242;51.250;-1.118;2024-01-16T01:30:10;99934.22;;;4.56
70668;BMP280;58242;51.250;-1.118;2024-01-16T01:32:36;99940.63;;;4.55
70668;BMP280;58242;51.250;-1.118;2024-01-16T01:35:02;99935.59;;;4.54
70668;BMP280;58242;51.250;-1.118;2024-01-16T01:37:27;99934.81;;;4.53
70668;BMP280;58242;51.250;-1.118;2024-01-16T01:39:52;99933.22;;;4.52
70668;BMP280;58242;51.250;-1.118;2024-01-16T01:42:18;99926.38;;;4.51
70668;BMP280;58242;51.250;-1.118;2024-01-16T01:44:43;99921.16;;;4.46
70668;BMP280;58242;51.250;-1.118;2024-01-16T01:47:09;99916.94;;;4.45
70668;BMP280;58242;51.250;-1.118;2024-01-16T01:49:35;99921.72;;;4.43
70668;BMP280;58242;51.250;-1.118;2024-01-16T01:52:02;99918.56;;;4.42
70668;BMP280;58242;51.250;-1.118;2024-01-16T01:54:29;99927.09;;;4.39
70668;BMP280;58242;51.250;-1.118;2024-01-16T01:56:55;99920.53;;;4.36
70668;BMP280;58242;51.250;-1.118;2024-01-16T01:59:21;99925.31;;;4.34
70668;BMP280;58242;51.250;-1.118;2024-01-16T02:01:49;99919.81;;;4.31
70668;BMP280;58242;51.250;-1.118;2024-01-16T02:04:18;99926.47;;;4.28
70668;BMP280;58242;51.250;-1.118;2024-01-16T02:06:44;99922.50;;;4.26
70668;BMP280;58242;51.250;-1.118;2024-01-16T02:09:10;99919.38;;;4.24
70668;BMP280;58242;51.250;-1.118;2024-01-16T02:11:41;99937.91;;;4.24
70668;BMP280;58242;51.250;-1.118;2024-01-16T02:14:07;99931.38;;;4.17
70668;BMP280;58242;51.250;-1.118;2024-01-16T02:16:37;99930.13;;;4.14
70668;BMP280;58242;51.250;-1.118;2024-01-16T02:19:03;99933.81;;;4.13
70668;BMP280;58242;51.250;-1.118;2024-01-16T02:21:35;99921.66;;;4.12
70668;BMP280;58242;51.250;-1.118;2024-01-16T02:24:02;99935.16;;;4.11
70668;BMP280;58242;51.250;-1.118;2024-01-16T02:26:27;99932.03;;;4.09
70668;BMP280;58242;51.250;-1.118;2024-01-16T02:28:53;99929.38;;;4.09
70668;BMP280;58242;51.250;-1.118;2024-01-16T02:31:18;99930.75;;;4.07
70668;BMP280;58242;51.250;-1.118;2024-01-16T02:33:44;99931.81;;;4.06
70668;BMP280;58242;51.250;-1.118;2024-01-16T02:36:09;99931.28;;;4.04
70668;BMP280;58242;51.250;-1.118;2024-01-16T02:38:34;99933.44;;;4.02
70668;BMP280;58242;51.250;-1.118;2024-01-16T02:41:00;99929.22;;;4.01
70668;BMP280;58242;51.250;-1.118;2024-01-16T02:43:25;99932.94;;;4.00
70668;BMP280;58242;51.250;-1.118;2024-01-16T02:45:52;99922.34;;;4.00
70668;BMP280;58242;51.250;-1.118;2024-01-16T02:48:18;99918.16;;;3.99
70668;BMP280;58242;51.250;-1.118;2024-01-16T02:50:43;99912.34;;;3.97
70668;BMP280;58242;51.250;-1.118;2024-01-16T02:53:08;99919.22;;;3.98
70668;BMP280;58242;51.250;-1.118;2024-01-16T02:55:34;99909.69;;;3.97
70668;BMP280;58242;51.250;-1.118;2024-01-16T02:57:59;99910.78;;;3.96
70668;BMP280;58242;51.250;-1.118;2024-01-16T03:00:24;99911.56;;;3.96
70668;BMP280;58242;51.250;-1.118;2024-01-16T03:02:50;99914.72;;;3.98
70668;BMP280;58242;51.250;-1.118;2024-01-16T03:05:15;99908.91;;;3.96
70668;BMP280;58242;51.250;-1.118;2024-01-16T03:07:41;99910.22;;;3.99
70668;BMP280;58242;51.250;-1.118;2024-01-16T03:10:06;99902.28;;;3.99
70668;BMP280;58242;51.250;-1.118;2024-01-16T03:12:32;99906.78;;;3.98
70668;BMP280;58242;51.250;-1.118;2024-01-16T03:14:57;99903.34;;;3.98
70668;BMP280;58242;51.250;-1.118;2024-01-16T03:17:23;99898.34;;;3.96
70668;BMP280;58242;51.250;-1.118;2024-01-16T03:19:48;99902.84;;;3.96
70668;BMP280;58242;51.250;-1.118;2024-01-16T03:22:13;99894.16;;;3.95
70668;BMP280;58242;51.250;-1.118;2024-01-16T03:24:39;99893.03;;;3.96
70668;BMP280;58242;51.250;-1.118;2024-01-16T03:27:04;99888.53;;;3.97
70668;BMP280;58242;51.250;-1.118;2024-01-16T03:29:29;99883.78;;;3.99
70668;BMP280;58242;51.250;-1.118;2024-01-16T03:31:55;99881.34;;;4.02
70668;BMP280;58242;51.250;-1.118;2024-01-16T03:34:20;99881.56;;;4.06
70668;BMP280;58242;51.250;-1.118;2024-01-16T03:36:46;99878.34;;;4.09
70668;BMP280;58242;51.250;-1.118;2024-01-16T03:39:11;99874.03;;;4.12
70668;BMP280;58242;51.250;-1.118;2024-01-16T03:41:37;99868.97;;;4.16
70668;BMP280;58242;51.250;-1.118;2024-01-16T03:44:03;99863.09;;;4.19
70668;BMP280;58242;51.250;-1.118;2024-01-16T03:46:28;99870.19;;;4.23
70668;BMP280;58242;51.250;-1.118;2024-01-16T03:48:54;99869.59;;;4.26
70668;BMP280;58242;51.250;-1.118;2024-01-16T03:51:19;99866.41;;;4.29
70668;BMP280;58242;51.250;-1.118;2024-01-16T03:53:45;99860.53;;;4.32
70668;BMP280;58242;51.250;-1.118;2024-01-16T03:56:11;99862.59;;;4.35
70668;BMP280;58242;51.250;-1.118;2024-01-16T03:58:37;99859.66;;;4.36
70668;BMP280;58242;51.250;-1.118;2024-01-16T04:01:02;99862.78;;;4.38
70668;BMP280;58242;51.250;-1.118;2024-01-16T04:03:28;99856.44;;;4.39
70668;BMP280;58242;51.250;-1.118;2024-01-16T04:05:53;99861.72;;;4.39
70668;BMP280;58242;51.250;-1.118;2024-01-16T04:08:18;99859.09;;;4.39
70668;BMP280;58242;51.250;-1.118;2024-01-16T04:10:44;99854.59;;;4.40
70668;BMP280;58242;51.250;-1.118;2024-01-16T04:13:09;99847.72;;;4.39
70668;BMP280;58242;51.250;-1.118;2024-01-16T04:15:38;99847.72;;;4.39
70668;BMP280;58242;51.250;-1.118;2024-01-16T04:18:04;99839.28;;;4.37
70668;BMP280;58242;51.250;-1.118;2024-01-16T04:20:29;99843.28;;;4.34
70668;BMP280;58242;51.250;-1.118;2024-01-16T04:22:55;99839.38;;;4.32
70668;BMP280;58242;51.250;-1.118;2024-01-16T04:25:21;99834.66;;;4.29
70668;BMP280;58242;51.250;-1.118;2024-01-16T04:27:46;99835.22;;;4.26
70668;BMP280;58242;51.250;-1.118;2024-01-16T04:30:12;99821.28;;;4.21
70668;BMP280;58242;51.250;-1.118;2024-01-16T04:32:38;99824.53;;;4.18
70668;BMP280;58242;51.250;-1.118;2024-01-16T04:35:03;99820.09;;;4.13
70668;BMP280;58242;51.250;-1.118;2024-01-16T04:37:29;99828.59;;;4.10
70668;BMP280;58242;51.250;-1.118;2024-01-16T04:39:54;99823.06;;;4.07
70668;BMP280;58242;51.250;-1.118;2024-01-16T04:42:19;99818.66;;;4.03
70668;BMP280;58242;51.250;-1.118;2024-01-16T04:44:45;99816.56;;;4.00
70668;BMP280;58242;51.250;-1.118;2024-01-16T04:47:10;99816.38;;;3.96
70668;BMP280;58242;51.250;-1.118;2024-01-16T04:49:37;99810.06;;;3.92
70668;BMP280;58242;51.250;-1.118;2024-01-16T04:52:02;99818.31;;;3.91
70668;BMP280;58242;51.250;-1.118;2024-01-16T04:54:28;99805.16;;;3.86
70668;BMP280;58242;51.250;-1.118;2024-01-16T04:56:53;99799.94;;;3.81
70668;BMP280;58242;51.250;-1.118;2024-01-16T04:59:19;99797.88;;;3.78
70668;BMP280;58242;51.250;-1.118;2024-01-16T05:01:44;99792.38;;;3.75
70668;BMP280;58242;51.250;-1.118;2024-01-16T05:04:09;99791.09;;;3.73
70668;BMP280;58242;51.250;-1.118;2024-01-16T05:06:35;99788.25;;;3.69
70668;BMP280;58242;51.250;-1.118;2024-01-16T05:09:00;99790.38;;;3.67
70668;BMP280;58242;51.250;-1.118;2024-01-16T05:11:26;99790.94;;;3.64
70668;BMP280;58242;51.250;-1.118;2024-01-16T05:13:51;99799.44;;;3.61
70668;BMP280;58242;51.250;-1.118;2024-01-16T05:16:24;99791.28;;;3.58
70668;BMP280;58242;51.250;-1.118;2024-01-16T05:18:49;99789.22;;;3.55
70668;BMP280;58242;51.250;-1.118;2024-01-16T05:21:14;99786.56;;;3.55
70668;BMP280;58242;51.250;-1.118;2024-01-16T05:23:40;99779.22;;;3.52
70668;BMP280;58242;51.250;-1.118;2024-01-16T05:26:05;99785.56;;;3.51
70668;BMP280;58242;51.250;-1.118;2024-01-16T05:28:31;99788.22;;;3.51
70668;BMP280;58242;51.250;-1.118;2024-01-16T05:30:56;99775.56;;;3.48
70668;BMP280;58242;51.250;-1.118;2024-01-16T05:33:21;99771.34;;;3.47
70668;BMP280;58242;51.250;-1.118;2024-01-16T05:35:47;99772.44;;;3.46
70668;BMP280;58242;51.250;-1.118;2024-01-16T05:38:12;99772.44;;;3.46
70668;BMP280;58242;51.250;-1.118;2024-01-16T05:40:37;99770.06;;;3.45
70668;BMP280;58242;51.250;-1.118;2024-01-16T05:43:03;99773.78;;;3.44
70668;BMP280;58242;51.250;-1.118;2024-01-16T05:45:28;99770.34;;;3.43
70668;BMP280;58242;51.250;-1.118;2024-01-16T05:47:54;99757.13;;;3.43
70668;BMP280;58242;51.250;-1.118;2024-01-16T05:50:19;99756.66;;;3.41
70668;BMP280;58242;51.250;-1.118;2024-01-16T05:52:45;99755.06;;;3.41
70668;BMP280;58242;51.250;-1.118;2024-01-16T05:55:10;99748.50;;;3.38
70668;BMP280;58242;51.250;-1.118;2024-01-16T05:57:36;99758.03;;;3.39
70668;BMP280;58242;51.250;-1.118;2024-01-16T06:00:03;99749.56;;;3.37
70668;BMP280;58242;51.250;-1.118;2024-01-16T06:02:30;99741.44;;;3.34
70668;BMP280;58242;51.250;-1.118;2024-01-16T06:04:55;99749.63;;;3.32
70668;BMP280;58242;51.250;-1.118;2024-01-16T06:07:21;99753.06;;;3.33
70668;BMP280;58242;51.250;-1.118;2024-01-16T06:09:46;99742.00;;;3.31
70668;BMP280;58242;51.250;-1.118;2024-01-16T06:12:12;99745.72;;;3.30
70668;BMP280;58242;51.250;-1.118;2024-01-16T06:14:37;99738.06;;;3.28
70668;BMP280;58242;51.250;-1.118;2024-01-16T06:17:03;99741.81;;;3.27
70668;BMP280;58242;51.250;-1.118;2024-01-16T06:19:30;99730.44;;;3.27
70668;BMP280;58242;51.250;-1.118;2024-01-16T06:21:56;99732.78;;;3.28
70668;BMP280;58242;51.250;-1.118;2024-01-16T06:24:22;99737.78;;;3.30
70668;BMP280;58242;51.250;-1.118;2024-01-16T06:26:47;99719.03;;;3.31
70668;BMP280;58242;51.250;-1.118;2024-01-16T06:29:12;99726.38;;;3.34
70668;BMP280;58242;51.250;-1.118;2024-01-16T06:31:38;99727.06;;;3.40
70668;BMP280;58242;51.250;-1.118;2024-01-16T06:34:03;99734.94;;;3.44
70668;BMP280;58242;51.250;-1.118;2024-01-16T06:36:29;99724.31;;;3.49
70668;BMP280;58242;51.250;-1.118;2024-01-16T06:38:54;99719.44;;;3.56
70668;BMP280;58242;51.250;-1.118;2024-01-16T06:41:19;99722.50;;;3.63
70668;BMP280;58242;51.250;-1.118;2024-01-16T06:43:46;99714.72;;;3.71
70668;BMP280;58242;51.250;-1.118;2024-01-16T06:46:11;99726.50;;;3.78
70668;BMP280;58242;51.250;-1.118;2024-01-16T06:48:37;99731.94;;;3.87
70668;BMP280;58242;51.250;-1.118;2024-01-16T06:51:04;99738.41;;;3.94
70668;BMP280;58242;51.250;-1.118;2024-01-16T06:53:29;99741.78;;;3.99
70668;BMP280;58242;51.250;-1.118;2024-01-16T06:55:56;99745.09;;;4.05
70668;BMP280;58242;51.250;-1.118;2024-01-16T06:58:21;99748.25;;;4.07
70668;BMP280;58242;51.250;-1.118;2024-01-16T07:00:47;99745.03;;;4.09
70668;BMP280;58242;51.250;-1.118;2024-01-16T07:03:13;99744.72;;;4.11
70668;BMP280;58242;51.250;-1.118;2024-01-16T07:05:39;99743.97;;;4.10
70668;BMP280;58242;51.250;-1.118;2024-01-16T07:08:06;99746.09;;;4.09
70668;BMP280;58242;51.250;-1.118;2024-01-16T07:10:32;99738.75;;;4.06
70668;BMP280;58242;51.250;-1.118;2024-01-16T07:12:57;99732.47;;;4.02
70668;BMP280;58242;51.250;-1.118;2024-01-16T07:15:23;99733.59;;;3.96
70668;BMP280;58242;51.250;-1.118;2024-01-16T07:17:48;99734.78;;;3.90
70668;BMP280;58242;51.250;-1.118;2024-01-16T07:20:13;99727.22;;;3.84
70668;BMP280;58242;51.250;-1.118;2024-01-16T07:22:39;99731.00;;;3.78
70668;BMP280;58242;51.250;-1.118;2024-01-16T07:25:05;99730.31;;;3.73
70668;BMP280;58242;51.250;-1.118;2024-01-16T07:27:31;99724.31;;;3.67
70668;BMP280;58242;51.250;-1.118;2024-01-16T07:29:56;99730.94;;;3.65
70668;BMP280;58242;51.250;-1.118;2024-01-16T07:32:22;99723.09;;;3.60
70668;BMP280;58242;51.250;-1.118;2024-01-16T07:34:47;99717.88;;;3.55
70668;BMP280;58242;51.250;-1.118;2024-01-16T07:37:12;99720.31;;;3.52
70668;BMP280;58242;51.250;-1.118;2024-01-16T07:39:38;99719.31;;;3.48
70668;BMP280;58242;51.250;-1.118;2024-01-16T07:42:04;99711.94;;;3.45
70668;BMP280;58242;51.250;-1.118;2024-01-16T07:44:29;99710.97;;;3.41
70668;BMP280;58242;51.250;-1.118;2024-01-16T07:46:54;99700.19;;;3.38
70668;BMP280;58242;51.250;-1.118;2024-01-16T07:49:20;99702.31;;;3.36
70668;BMP280;58242;51.250;-1.118;2024-01-16T07:51:45;99699.44;;;3.32
70668;BMP280;58242;51.250;-1.118;2024-01-16T07:54:10;99708.75;;;3.30
70668;BMP280;58242;51.250;-1.118;2024-01-16T07:56:38;99700.31;;;3.28
70668;BMP280;58242;51.250;-1.118;2024-01-16T07:59:04;99698.22;;;3.25
70668;BMP280;58242;51.250;-1.118;2024-01-16T08:01:29;99696.16;;;3.22
70668;BMP280;58242;51.250;-1.118;2024-01-16T08:03:55;99687.75;;;3.20
70668;BMP280;58242;51.250;-1.118;2024-01-16T08:06:21;99685.41;;;3.19
70668;BMP280;58242;51.250;-1.118;2024-01-16T08:08:47;99695.16;;;3.18
70668;BMP280;58242;51.250;-1.118;2024-01-16T08:11:12;99698.09;;;3.17
70668;BMP280;58242;51.250;-1.118;2024-01-16T08:13:37;99694.16;;;3.14
70668;BMP280;58242;51.250;-1.118;2024-01-16T08:16:04;99694.94;;;3.15
70668;BMP280;58242;51.250;-1.118;2024-01-16T08:18:29;99699.44;;;3.14
70668;BMP280;58242;51.250;-1.118;2024-01-16T08:20:56;99697.59;;;3.15
70668;BMP280;58242;51.250;-1.118;2024-01-16T08:23:22;99694.94;;;3.15
70668;BMP280;58242;51.250;-1.118;2024-01-16T08:25:47;99692.31;;;3.15
70668;BMP280;58242;51.250;-1.118;2024-01-16T08:28:13;99694.16;;;3.14
70668;BMP280;58242;51.250;-1.118;2024-01-16T08:30:38;99686.25;;;3.14
70668;BMP280;58242;51.250;-1.118;2024-01-16T08:33:03;99682.53;;;3.15
70668;BMP280;58242;51.250;-1.118;2024-01-16T08:35:29;99676.97;;;3.17
70668;BMP280;58242;51.250;-1.118;2024-01-16T08:37:54;99674.84;;;3.19
70668;BMP280;58242;51.250;-1.118;2024-01-16T08:40:19;99674.56;;;3.20
70668;BMP280;58242;51.250;-1.118;2024-01-16T08:42:45;99679.75;;;3.25
70668;BMP280;58242;51.250;-1.118;2024-01-16T08:45:10;99675.19;;;3.30
70668;BMP280;58242;51.250;-1.118;2024-01-16T08:47:36;99680.69;;;3.34
70668;BMP280;58242;51.250;-1.118;2024-01-16T08:50:02;99676.41;;;3.38
70668;BMP280;58242;51.250;-1.118;2024-01-16T08:52:27;99680.03;;;3.41
70668;BMP280;58242;51.250;-1.118;2024-01-16T08:54:53;99676.53;;;3.46
70668;BMP280;58242;51.250;-1.118;2024-01-16T08:57:18;99673.31;;;3.49
70668;BMP280;58242;51.250;-1.118;2024-01-16T08:59:43;99665.59;;;3.52
70668;BMP280;58242;51.250;-1.118;2024-01-16T09:02:09;99666.31;;;3.58
70668;BMP280;58242;51.250;-1.118;2024-01-16T09:04:34;99668.31;;;3.65
70668;BMP280;58242;51.250;-1.118;2024-01-16T09:07:00;99664.72;;;3.75
70668;BMP280;58242;51.250;-1.118;2024-01-16T09:09:25;99670.06;;;3.88
70668;BMP280;58242;51.250;-1.118;2024-01-16T09:11:50;99658.44;;;4.02
70668;BMP280;58242;51.250;-1.118;2024-01-16T09:14:16;99660.81;;;4.16
70668;BMP280;58242;51.250;-1.118;2024-01-16T09:16:42;99664.94;;;4.35
70668;BMP280;58242;51.250;-1.118;2024-01-16T09:19:07;99662.72;;;4.55
70668;BMP280;58242;51.250;-1.118;2024-01-16T09:21:34;99656.50;;;4.73
70668;BMP280;58242;51.250;-1.118;2024-01-16T09:23:59;99650.53;;;4.94
70668;BMP280;58242;51.250;-1.118;2024-01-16T09:26:25;99656.94;;;5.14
70668;BMP280;58242;51.250;-1.118;2024-01-16T09:28:50;99644.66;;;5.31
70668;BMP280;58242;51.250;-1.118;2024-01-16T09:31:16;99658.81;;;5.48
70668;BMP280;58242;51.250;-1.118;2024-01-16T09:33:41;99651.88;;;5.60
70668;BMP280;58242;51.250;-1.118;2024-01-16T09:36:08;99647.34;;;5.74
70668;BMP280;58242;51.250;-1.118;2024-01-16T09:38:34;99644.31;;;5.88
70668;BMP280;58242;51.250;-1.118;2024-01-16T09:40:59;99648.16;;;6.04
70668;BMP280;58242;51.250;-1.118;2024-01-16T09:43:28;99639.78;;;6.18
70668;BMP280;58242;51.250;-1.118;2024-01-16T09:45:55;99635.50;;;6.31
70668;BMP280;58242;51.250;-1.118;2024-01-16T09:48:21;99637.91;;;6.40
70668;BMP280;58242;51.250;-1.118;2024-01-16T09:50:46;99649.00;;;6.50
70668;BMP280;58242;51.250;-1.118;2024-01-16T09:53:12;99638.59;;;6.62
70668;BMP280;58242;51.250;-1.118;2024-01-16T09:55:37;99628.47;;;6.72
70668;BMP280;58242;51.250;-1.118;2024-01-16T09:58:05;99628.81;;;6.87
70668;BMP280;58242;51.250;-1.118;2024-01-16T10:00:31;99626.97;;;7.21
70668;BMP280;58242;51.250;-1.118;2024-01-16T10:02:57;99628.09;;;7.61
70668;BMP280;58242;51.250;-1.118;2024-01-16T10:05:24;99633.81;;;7.96
70668;BMP280;58242;51.250;-1.118;2024-01-16T10:07:51;99621.72;;;8.23
70668;BMP280;58242;51.250;-1.118;2024-01-16T10:10:17;99620.78;;;8.56
70668;BMP280;58242;51.250;-1.118;2024-01-16T10:12:43;99617.72;;;9.02
70668;BMP280;58242;51.250;-1.118;2024-01-16T10:15:09;99618.56;;;9.54
70668;BMP280;58242;51.250;-1.118;2024-01-16T10:17:38;99605.13;;;10.14
70668;BMP280;58242;51.250;-1.118;2024-01-16T10:20:05;99601.84;;;10.87
70668;BMP280;58242;51.250;-1.118;2024-01-16T10:22:31;99602.13;;;11.70
70668;BMP280;58242;51.250;-1.118;2024-01-16T10:25:12;99601.72;;;12.70
70668;BMP280;58242;51.250;-1.118;2024-01-16T10:27:42;99594.28;;;13.65
70668;BMP280;58242;51.250;-1.118;2024-01-16T10:30:08;99596.50;;;14.40
70668;BMP280;58242;51.250;-1.118;2024-01-16T10:32:36;99598.91;;;14.88
70668;BMP280;58242;51.250;-1.118;2024-01-16T10:35:10;99589.97;;;15.06
70668;BMP280;58242;51.250;-1.118;2024-01-16T10:37:52;99589.00;;;14.92
70668;BMP280;58242;51.250;-1.118;2024-01-16T10:40:20;99591.25;;;14.69
70668;BMP280;58242;51.250;-1.118;2024-01-16T10:43:05;99581.34;;;14.29
70668;BMP280;58242;51.250;-1.118;2024-01-16T10:45:32;99584.84;;;13.89
70668;BMP280;58242;51.250;-1.118;2024-01-16T10:48:06;99591.97;;;13.45
70668;BMP280;58242;51.250;-1.118;2024-01-16T10:50:33;99580.31;;;13.04
70668;BMP280;58242;51.250;-1.118;2024-01-16T10:53:06;99601.16;;;12.62
70668;BMP280;58242;51.250;-1.118;2024-01-16T10:55:36;99589.34;;;12.21
70668;BMP280;58242;51.250;-1.118;2024-01-16T10:58:05;99584.88;;;11.83
70668;BMP280;58242;51.250;-1.118;2024-01-16T11:00:32;99583.66;;;11.54
70668;BMP280;58242;51.250;-1.118;2024-01-16T11:03:05;99590.53;;;11.28
70668;BMP280;58242;51.250;-1.118;2024-01-16T11:05:33;99583.78;;;11.07
70668;BMP280;58242;51.250;-1.118;2024-01-16T11:07:59;99577.78;;;10.87
70668;BMP280;58242;51.250;-1.118;2024-01-16T11:10:29;99573.13;;;10.72
70668;BMP280;58242;51.250;-1.118;2024-01-16T11:13:00;99567.78;;;10.60
70668;BMP280;58242;51.250;-1.118;2024-01-16T11:15:26;99562.00;;;10.47
70668;BMP280;58242;51.250;-1.118;2024-01-16T11:17:56;99570.00;;;10.35
70668;BMP280;58242;51.250;-1.118;2024-01-16T11:20:23;99564.66;;;10.24
70668;BMP280;58242;51.250;-1.118;2024-01-16T11:22:49;99561.97;;;10.24
70668;BMP280;58242;51.250;-1.118;2024-01-16T11:25:17;99562.66;;;10.21
70668;BMP280;58242;51.250;-1.118;2024-01-16T11:27:45;99555.53;;;10.13
70668;BMP280;58242;51.250;-1.118;2024-01-16T11:30:29;99545.25;;;10.03
70668;BMP280;58242;51.250;-1.118;2024-01-16T11:32:54;99557.69;;;9.99
70668;BMP280;58242;51.250;-1.118;2024-01-16T11:35:32;99548.16;;;9.98
70668;BMP280;58242;51.250;-1.118;2024-01-16T11:38:06;99538.22;;;9.99
70668;BMP280;58242;51.250;-1.118;2024-01-16T11:40:33;99545.50;;;10.10
70668;BMP280;58242;51.250;-1.118;2024-01-16T11:46:01;99528.84;;;10.36
70668;BMP280;58242;51.250;-1.118;2024-01-16T11:48:27;99529.59;;;10.37
70668;BMP280;58242;51.250;-1.118;2024-01-16T11:50:53;99527.59;;;10.34
70668;BMP280;58242;51.250;-1.118;2024-01-16T11:53:34;99521.34;;;10.30
70668;BMP280;58242;51.250;-1.118;2024-01-16T11:59:17;99515.13;;;10.26
70668;BMP280;58242;51.250;-1.118;2024-01-16T12:01:44;99510.03;;;10.21
70668;BMP280;58242;51.250;-1.118;2024-01-16T12:04:10;99508.88;;;10.22
70668;BMP280;58242;51.250;-1.118;2024-01-16T12:06:36;99504.44;;;10.26
70668;BMP280;58242;51.250;-1.118;2024-01-16T12:09:15;99495.88;;;10.32
70668;BMP280;58242;51.250;-1.118;2024-01-16T12:11:43;99489.66;;;10.40
70668;BMP280;58242;51.250;-1.118;2024-01-16T12:14:13;99486.38;;;10.58
70668;BMP280;58242;51.250;-1.118;2024-01-16T12:16:38;99482.50;;;10.94
70668;BMP280;58242;51.250;-1.118;2024-01-16T12:19:07;99482.00;;;11.42
70668;BMP280;58242;51.250;-1.118;2024-01-16T12:21:43;99480.94;;;11.88
70668;BMP280;58242;51.250;-1.118;2024-01-16T12:24:10;99469.28;;;12.26
70668;BMP280;58242;51.250;-1.118;2024-01-16T12:26:35;99465.88;;;12.59
70668;BMP280;58242;51.250;-1.118;2024-01-16T12:29:01;99454.19;;;12.85
70668;BMP280;58242;51.250;-1.118;2024-01-16T12:31:27;99446.94;;;13.04
70668;BMP280;58242;51.250;-1.118;2024-01-16T12:34:04;99441.28;;;13.09
70668;BMP280;58242;51.250;-1.118;2024-01-16T12:36:29;99437.41;;;13.07
70668;BMP280;58242;51.250;-1.118;2024-01-16T12:38:54;99433.09;;;13.02
70668;BMP280;58242;51.250;-1.118;2024-01-16T12:41:22;99421.53;;;12.99
70668;BMP280;58242;51.250;-1.118;2024-01-16T12:43:51;99421.03;;;12.93
70668;BMP280;58242;51.250;-1.118;2024-01-16T12:46:16;99414.66;;;12.82
70668;BMP280;58242;51.250;-1.118;2024-01-16T12:48:45;99398.63;;;12.67
70668;BMP280;58242;51.250;-1.118;2024-01-16T12:51:20;99401.72;;;12.51
70668;BMP280;58242;51.250;-1.118;2024-01-16T12:53:45;99404.34;;;12.32
70668;BMP280;58242;51.250;-1.118;2024-01-16T12:56:11;99395.84;;;12.12
70668;BMP280;58242;51.250;-1.118;2024-01-16T12:58:37;99394.22;;;11.93
70668;BMP280;58242;51.250;-1.118;2024-01-16T13:01:25;99376.97;;;11.75
70668;BMP280;58242;51.250;-1.118;2024-01-16T13:03:51;99377.47;;;11.65
70668;BMP280;58242;51.250;-1.118;2024-01-16T13:06:17;99373.53;;;11.60
70668;BMP280;58242;51.250;-1.118;2024-01-16T13:08:48;99368.09;;;11.41
70668;BMP280;58242;51.250;-1.118;2024-01-16T13:11:14;99376.44;;;11.40
70668;BMP280;58242;51.250;-1.118;2024-01-16T13:13:47;99365.03;;;11.43
70668;BMP280;58242;51.250;-1.118;2024-01-16T13:16:13;99354.34;;;11.43
70668;BMP280;58242;51.250;-1.118;2024-01-16T13:18:38;99355.47;;;11.42
70668;BMP280;58242;51.250;-1.118;2024-01-16T13:21:04;99336.06;;;11.45
70668;BMP280;58242;51.250;-1.118;2024-01-16T13:23:29;99340.00;;;11.50
70668;BMP280;58242;51.250;-1.118;2024-01-16T13:25:56;99349.84;;;11.62
70668;BMP280;58242;51.250;-1.118;2024-01-16T13:28:22;99342.31;;;11.82
70668;BMP280;58242;51.250;-1.118;2024-01-16T13:30:48;99353.59;;;12.06
70668;BMP280;58242;51.250;-1.118;2024-01-16T13:33:15;99344.97;;;12.31
70668;BMP280;58242;51.250;-1.118;2024-01-16T13:35:45;99333.91;;;12.50
70668;BMP280;58242;51.250;-1.118;2024-01-16T13:38:14;99330.41;;;12.83
70668;BMP280;58242;51.250;-1.118;2024-01-16T13:40:41;99325.91;;;13.09
70668;BMP280;58242;51.250;-1.118;2024-01-16T13:43:06;99310.53;;;13.28
70668;BMP280;58242;51.250;-1.118;2024-01-16T13:45:32;99302.72;;;13.42
70668;BMP280;58242;51.250;-1.118;2024-01-16T13:47:59;99297.78;;;13.44
70668;BMP280;58242;51.250;-1.118;2024-01-16T13:50:26;99304.69;;;13.45
70668;BMP280;58242;51.250;-1.118;2024-01-16T13:52:51;99307.38;;;13.45
70668;BMP280;58242;51.250;-1.118;2024-01-16T13:55:17;99304.16;;;13.36
70668;BMP280;58242;51.250;-1.118;2024-01-16T13:57:43;99303.16;;;13.22
70668;BMP280;58242;51.250;-1.118;2024-01-16T14:00:11;99306.28;;;13.05
70668;BMP280;58242;51.250;-1.118;2024-01-16T14:02:39;99302.16;;;12.89
70668;BMP280;58242;51.250;-1.118;2024-01-16T14:05:07;99297.38;;;12.80
70668;BMP280;58242;51.250;-1.118;2024-01-16T14:07:35;99297.13;;;12.66